• Join FlightAware (Why Join?)
  • Login
  • US Flag 
Gobble Gobble! 
06:51AM EST


 

Airport Tracker/Info


-or-


 

Live Flight TrackerFlight Track Log ✈ JBU348 ✈ 30-Apr-2013 ✈ KSRQ - KJFK

Flight Track Log - Related Links

Times and Time Zones

All times are in EDT time to prevent confusion due to time zone crossing. See the JBU348 flight status page for this flight to view local times or setup timezone preferences in your user account.

Time Position Orientation Groundspeed Altitude Reporting Facility
EDT Latitude Longitude Course Direction KTS MPH feet Rate Location/Type
06:16PM 27.4000 -82.5667 North 191 220 600  Level Tampa TRACON
06:17PM 27.4000 -82.6167 270° West 209 241 1,900 1,920 Climbing Tampa TRACON
06:18PM 27.4000 -82.6833 270° West 260 299 4,300 2,940 Climbing Tampa TRACON
06:19PM 27.6840 -82.7833 North  Level FlightAware Approximate
06:19PM 27.4500 -82.7667 304° West 278 320 7,600  Level Tampa TRACON
06:20PM 27.7986 -82.7833 360° North  Level FlightAware Approximate
06:20PM 27.5878 -82.7908 351° North 336 387 12,000  Level Miami Center
06:21PM 27.9131 -82.7833 North  Level FlightAware Approximate
06:21PM 27.6817 -82.7911 360° North 329 379 14,900  Level Miami Center
06:24PM 27.8911 -82.7892 360° North 343 395 19,800 2,040 Climbing Jacksonville Center
06:25PM 27.9956 -82.7892 360° North 356 410 21,600 1,800 Climbing Jacksonville Center
06:26PM 28.1039 -82.7892 360° North 375 432 23,500 1,800 Climbing Jacksonville Center
06:27PM 28.2167 -82.7867 North 388 447 25,300 1,200 Climbing Jacksonville Center
06:28PM 28.3314 -82.7842 North 394 453 26,000 540 Climbing Jacksonville Center
06:29PM 28.4461 -82.7839 360° North 399 459 26,400 480 Climbing Jacksonville Center
06:30PM 28.5608 -82.7719 North 406 467 27,000 300 Climbing Jacksonville Center
06:31PM 28.6778 -82.7625 North 411 473 27,000  Level Jacksonville Center
06:32PM 28.7883 -82.7528 North 406 467 27,000 780 Level Jacksonville Center
06:33PM 28.9075 -82.7383 North 406 467 28,600 1,260 Climbing Jacksonville Center
06:34PM 29.0264 -82.7286 North 412 474 29,600 1,200 Climbing Jacksonville Center
06:35PM 29.1475 -82.7167 North 424 488 31,000 1,380 Climbing Jacksonville Center
06:36PM 29.2683 -82.7044 North 430 495 32,400 1,200 Climbing Jacksonville Center
06:37PM 29.3894 -82.6947 North 430 495 33,400 780 Climbing Jacksonville Center
06:38PM 29.5253 -82.6969 359° North 430 495 34,000 300 Climbing Jacksonville Center
06:39PM 29.6442 -82.6942 North 430 495 34,000  Level Jacksonville Center
06:40PM 29.7633 -82.6939 360° North 430 495 34,000  Level Jacksonville Center
06:41PM 29.8822 -82.6939 360° North 424 488 34,000  Level Jacksonville Center
06:42PM 29.9992 -82.6911 North 419 482 34,000 120 Level Jacksonville Center
06:43PM 30.1222 -82.6861 North 425 489 34,300 480 Climbing Jacksonville Center
06:44PM 30.2433 -82.6858 360° North 425 489 35,000 540 Climbing Jacksonville Center
06:45PM 30.3625 -82.6856 360° North 425 489 35,400 720 Climbing Jacksonville Center
06:46PM 30.4836 -82.6828 North 425 489 36,500 780 Climbing Jacksonville Center
06:47PM 30.5900 -82.6511 14° North 425 489 37,000 240 Climbing Jacksonville Center
06:48PM 30.7006 -82.5953 23° Northeast 420 483 37,000  Level Jacksonville Center
06:49PM 30.8194 -82.5369 23° Northeast 432 497 37,000  Level Jacksonville Center
06:50PM 30.9319 -82.4808 23° Northeast 437 503 37,000  Level Jacksonville Center
06:51PM 31.0444 -82.4247 23° Northeast 442 509 37,000  Level Jacksonville Center
06:52PM 31.1611 -82.3706 22° Northeast 442 509 37,000  Level Jacksonville Center
06:53PM 31.2778 -82.3142 22° Northeast 442 509 37,000  Level Jacksonville Center
06:54PM 31.3944 -82.2550 23° Northeast 442 509 37,000  Level Jacksonville Center
06:55PM 31.5092 -82.2031 21° North 442 509 37,000  Level Jacksonville Center
06:56PM 31.6319 -82.1361 25° Northeast 442 509 37,000  Level Jacksonville Center
06:57PM 31.7400 -82.0839 22° Northeast 436 502 37,000  Level Jacksonville Center
06:58PM 31.8650 -82.0217 23° Northeast 445 512 37,000  Level Jacksonville Center
06:59PM 31.9814 -81.9594 24° Northeast 445 512 37,000  Level Jacksonville Center
07:00PM 32.0725 -81.8703 40° Northeast 460 529 37,000  Level Jacksonville Center
07:01PM 32.1844 -81.7633 39° Northeast 476 548 37,000  Level Jacksonville Center
07:02PM 32.2836 -81.6614 41° Northeast 471 542 37,000  Level Jacksonville Center
07:03PM 32.3747 -81.5717 40° Northeast 478 550 37,000  Level Jacksonville Center
07:04PM 32.4842 -81.4642 40° Northeast 472 543 37,000  Level Jacksonville Center
07:05PM 32.5831 -81.3639 41° Northeast 472 543 37,000  Level Jacksonville Center
07:06PM 32.6697 -81.2761 40° Northeast 462 532 37,000  Level Jacksonville Center
07:07PM 32.7789 -81.1631 41° Northeast 462 532 37,000  Level Jacksonville Center
07:08PM 32.8778 -81.0647 40° Northeast 462 532 37,000  Level Jacksonville Center
07:09PM 32.9703 -80.9661 42° Northeast 452 520 37,000  Level Jacksonville Center
07:10PM 33.0647 -80.8750 39° Northeast 452 520 37,000  Level Jacksonville Center
07:11PM 33.1592 -80.7761 41° Northeast 452 520 37,000  Level Jacksonville Center
07:12PM 33.2556 -80.6794 40° Northeast 452 520 37,000  Level Jacksonville Center
07:13PM 33.3500 -80.5825 41° Northeast 452 520 37,000  Level Jacksonville Center
07:14PM 33.4442 -80.4856 41° Northeast 452 520 37,000  Level Jacksonville Center
07:15PM 33.5125 -80.3542 58° Northeast 452 520 37,000  Level Jacksonville Center
07:16PM 33.5597 -80.2231 67° East 467 537 37,000  Level Jacksonville Center
07:17PM 33.6108 -80.0744 68° East 462 532 37,000  Level Jacksonville Center
07:18PM 33.6597 -79.9281 68° East 469 540 37,000  Level Jacksonville Center
07:19PM 33.7106 -79.7817 67° East 474 545 37,000  Level Jacksonville Center
07:20PM 33.7608 -79.6350 68° East 474 545 37,000 300 Level Jacksonville Center
07:21PM 33.8114 -79.4883 67° East 474 545 37,600 600 Climbing Jacksonville Center
07:22PM 33.8614 -79.3336 69° East 459 528 38,300 600 Climbing Jacksonville Center
07:23PM 33.9133 -79.1864 67° East 459 528 38,800 300 Climbing Jacksonville Center
07:24PM 33.9631 -79.0367 68° East 459 528 39,000  Climbing Jacksonville Center
07:26PM 34.1603 -78.7942 45° Northeast 450 518 39,000  Level Washington Center
07:27PM 34.2586 -78.7000 38° Northeast 444 511 39,000  Level Washington Center
07:28PM 34.3531 -78.6056 40° Northeast 439 505 39,000  Level Washington Center
07:29PM 34.4492 -78.5108 39° Northeast 439 505 39,000  Level Washington Center
07:30PM 34.5414 -78.4083 42° Northeast 439 505 39,000  Level Washington Center
07:31PM 34.6417 -78.3158 37° Northeast 439 505 39,000  Level Washington Center
07:32PM 34.7356 -78.2206 40° Northeast 439 505 39,000  Level Washington Center
07:33PM 34.8275 -78.1144 43° Northeast 439 505 39,000  Level Washington Center
07:34PM 34.9256 -78.0189 39° Northeast 439 505 39,000  Level Washington Center
07:35PM 35.0172 -77.9228 41° Northeast 439 505 39,000  Level Washington Center
07:36PM 35.1169 -77.8317 37° Northeast 439 505 39,000  Level Washington Center
07:37PM 35.2206 -77.7531 32° Northeast 439 505 39,000  Level Washington Center
07:38PM 35.3242 -77.6744 32° Northeast 439 505 39,000  Level Washington Center
07:39PM 35.4278 -77.5956 32° Northeast 439 505 39,000  Level Washington Center
07:40PM 35.5292 -77.5164 32° Northeast 434 499 39,000  Level Washington Center
07:41PM 35.6308 -77.4344 33° Northeast 434 499 39,000  Level Washington Center
07:42PM 35.7342 -77.3550 32° Northeast 434 499 39,000  Level Washington Center
07:43PM 35.8397 -77.2728 32° Northeast 434 499 39,000  Level Washington Center
07:44PM 35.9389 -77.1953 32° Northeast 434 499 39,000  Level Washington Center
07:45PM 36.0464 -77.1103 33° Northeast 425 489 39,000  Level Washington Center
07:46PM 36.1247 -77.0011 48° Northeast 412 474 39,000  Level Washington Center
07:47PM 36.1828 -76.8633 62° Northeast 432 497 39,000  Level Washington Center
07:48PM 36.2322 -76.7172 67° East 432 497 39,000  Level Washington Center
07:49PM 36.2750 -76.5814 69° East 451 519 39,000  Level Washington Center
07:50PM 36.3178 -76.4375 70° East 451 519 39,000  Level Washington Center
07:51PM 36.4103 -76.3431 39° Northeast 433 498 39,000  Level Washington Center
07:52PM 36.5192 -76.2872 22° Northeast 398 458 39,000  Level Washington Center
07:53PM 36.6300 -76.2314 22° Northeast 403 464 39,000  Level Washington Center
07:54PM 36.7367 -76.1700 25° Northeast 419 482 39,000  Level Washington Center
07:55PM 36.8517 -76.1111 22° Northeast 424 488 39,000  Level Washington Center
07:56PM 36.9792 -76.0494 21° North 440 506 39,000  Level Washington Center
07:57PM 37.0900 -75.9878 24° Northeast 445 512 39,000  Level Washington Center
07:58PM 37.2028 -75.9283 23° Northeast 440 506 39,000  Level Washington Center
07:59PM 37.3114 -75.8686 24° Northeast 430 495 39,000  Level Washington Center
08:00PM 37.4242 -75.8089 23° Northeast 430 495 39,000  Level Washington Center
08:01PM 37.5369 -75.7464 24° Northeast 435 501 39,000  Level Washington Center
08:02PM 37.6517 -75.6889 22° Northeast 435 501 39,000  Level Washington Center
08:03PM 37.7644 -75.6286 23° Northeast 435 501 39,000  Level Washington Center
08:04PM 37.8750 -75.5681 23° Northeast 435 501 39,000  Level Washington Center
08:05PM 37.9875 -75.5100 22° Northeast 440 506 39,000 -300 Level Washington Center
08:06PM 38.0981 -75.4439 25° Northeast 440 506 38,500 -660 Descending Washington Center
08:07PM 38.2064 -75.3750 27° Northeast 440 506 37,700 -720 Descending Washington Center
08:08PM 38.2917 -75.3219 26° Northeast 434 499 37,100 -780 Descending Washington Center
08:09PM 38.4186 -75.2339 29° Northeast 427 491 36,200 -900 Descending Washington Center
08:10PM 38.5269 -75.1669 26° Northeast 422 486 35,400 -600 Descending Washington Center
08:11PM 38.6369 -75.0972 26° Northeast 427 491 35,000 -240 Descending Washington Center
08:12PM 38.7431 -75.0247 28° Northeast 427 491 35,000  Level Washington Center
08:13PM 38.8511 -74.9600 25° Northeast 427 491 35,000 -960 Level Washington Center
08:14PM 38.9569 -74.8897 27° Northeast 427 491 33,200 -2,100 Descending Washington Center
08:15PM 39.0628 -74.8217 27° Northeast 427 491 30,900 -2,340 Descending Washington Center
08:16PM 39.1644 -74.7297 35° Northeast 432 497 28,600 -2,340 Descending Washington Center
08:17PM 39.2553 -74.6294 41° Northeast 432 497 26,300 -2,220 Descending Washington Center
08:18PM 39.3556 -74.5217 40° Northeast 433 498 23,700 -2,100 Descending New York Center
08:19PM 39.4400 -74.4267 41° Northeast 411 473 21,600 -2,040 Descending New York Center
08:20PM 39.5239 -74.3394 39° Northeast 397 457 19,600 -1,860 Descending New York Center
08:21PM 39.6103 -74.2417 41° Northeast 377 434 17,900 -1,740 Descending New York Center
08:22PM 39.6814 -74.1642 40° Northeast 366 421 16,200 -1,440 Descending New York Center
08:23PM 39.7564 -74.0842 39° Northeast 366 421 15,100 -1,320 Descending New York Center
08:24PM 39.8381 -73.9961 40° Northeast 352 405 13,700 -1,320 Descending New York Center
08:25PM 39.9214 -73.9294 32° Northeast 346 398 12,500 -1,200 Descending New York Center
08:26PM 39.9872 -73.8783 31° Northeast 320 368 11,400 -780 Descending New York Center
08:27PM 40.0514 -73.8189 35° Northeast 299 344 11,000 -900 Descending New York Center
08:28PM 40.1278 -73.7706 26° Northeast 282 325 9,600 -1,620 Descending New York Center
08:29PM 40.1947 -73.8333 324° Northwest 256 295 7,800 -1,740 Descending New York Center
08:30PM 40.2578 -73.8933 324° Northwest 282 325 6,200 -1,440 Descending New York Center
08:31PM 40.3128 -73.9447 325° Northwest 282 325 5,000 -840 Descending New York Center
08:32PM 40.3778 -74.0050 325° Northwest 268 308 4,600 -660 Descending New York Center
08:33PM 40.4167 -74.0167 347° North 224 258 3,900 -900 Descending New York TRACON
08:34PM 40.4833 -74.0000 11° North 183 211 3,100 -300 Descending New York TRACON
08:36PM 40.5667 -73.9333 31° Northeast 179 206 3,000 -240 Descending New York TRACON
08:37PM 40.6000 -73.9000 37° Northeast 165 190 2,500 -660 Descending New York TRACON
08:39PM 40.6667 -73.8500 30° Northeast 124 143 1,100 -720 Descending New York TRACON
08:40PM 40.6667 -73.8000 90° East 117 135 400 -720 Descending New York TRACON
08:42PM 40.6398 -73.7789 66° East  Level Estimated
08:49PM 40.6398 -73.7789 66° East  Level Estimated